Airfield :







YOU CAN JOIN US ON...

 
LOGIN :

Register | Disclaimer

   EN    FR    IT 

 









Legend :    VFR   Marginal VFR   IFR   Intensive IFR   Very Intensive IFR
Visi :
Ceiling :
>= 8 km
>= 3000ft
5 to 8 km
1000 to 3000 ft
1500m to 5 km
500 to 1000 ft
800 to 1500m
200 to 500 ft
< 800m
< 200 ft
Symbols :   Thunderstorms  Fog  Heavy snow  Heavy precipitations  Wind > 20 kt






- Airport Elevation : 160 ft
- IATA code : YYG


CYYG - Charlottetown

CURRENT METAR :
  • 180600Z 29011KT 12SM -SHSN FEW015 OVC028 M10/M14 A3038 RMK SC2CU6 CIG RAG SLP294

EXPIRED METARs :
  • 180500Z 30009KT 12SM -SHSN FEW015 OVC027 M10/M14 A3035 RMK SC2CU6 CIG RAG SLP282
  • 180418Z 31012G18KT 10SM -SHSN DRSN FEW015 OVC028 M09/M12 A3033 RMK SC2CU6 CIG RAG SLP277
  • 180400Z 32010G19KT 5SM -SHSN DRSN SCT015 OVC030 M09/M11 A3032 RMK SN2CU2CU4 CIG RAG SLP274
  • 180333Z 31016G22KT 5SM -SHSN DRSN BKN015 OVC030 M08/M12 A3031 RMK SN3CU4CU1 VIS N LWR SLP269

TAF TAF CYYG
Valid from the 18 at 06:00 until the 18 at 18:00 UTC


180538Z 1806/1818 31010G20KT P6SM FEW015 OVC030
TEMPO 1806/1808 5SM -SHSN OVC015
FM180800 31008KT P6SM SKC
BECMG 1812/1814 VRB03KT
BECMG 1816/1818 19005KT RMK NXT FCST BY 181200Z



MET'MAP, your aeronautical weather chart ! - Copyright ORBIFLY December 2007 - Disclaimer

ORBIFLY MET'MAP TEAM :

Programming & Development : Alexandra Zaïnal
Concept & original design : Baudouin d'Aumeries
Assistance for programming : Marc-Olivier Méhu
Technical & hardware support : Manuel Goepfert

Contact : metmap@orbifly.com




SOURCES & CREDITS :

   NOAA